createdAt,value
2019-01-06T00:00:21.054Z,7.10
2019-01-06T00:03:15.686Z,8.73
2019-01-06T00:06:20.585Z,8.50
2019-01-06T00:09:08.539Z,7.67
2019-01-06T00:12:08.715Z,7.60
2019-01-06T00:15:05.154Z,9.50
2019-01-06T00:17:50.646Z,7.47
2019-01-06T00:20:43.775Z,9.50
2019-01-06T00:23:35.864Z,7.87
2019-01-06T00:26:29.140Z,8.20
2019-01-06T00:29:14.835Z,9.70
2019-01-06T00:32:09.119Z,8.40
2019-01-06T00:35:02.148Z,8.70
2019-01-06T00:37:48.308Z,6.53
2019-01-06T00:40:29.645Z,9.47
2019-01-06T00:43:20.893Z,7.90
2019-01-06T00:46:08.074Z,9.73
2019-01-06T00:49:08.771Z,8.17
2019-01-06T00:51:54.746Z,9.87
2019-01-06T00:54:44.916Z,11.10
2019-01-06T00:57:33.090Z,7.00
2019-01-06T01:00:29.366Z,8.33
2019-01-06T01:03:35.491Z,8.60
2019-01-06T01:06:21.425Z,8.17
2019-01-06T01:08:57.849Z,10.40
2019-01-06T01:11:55.925Z,8.93
2019-01-06T01:14:42.440Z,7.17
2019-01-06T01:17:35.542Z,9.87
2019-01-06T01:20:26.141Z,8.30
2019-01-06T01:23:12.519Z,7.73
2019-01-06T01:26:01.659Z,7.57
2019-01-06T01:28:48.060Z,6.10
2019-01-06T01:31:35.482Z,8.70
2019-01-06T01:34:41.205Z,7.70
2019-01-06T01:37:27.475Z,6.80
2019-01-06T01:40:16.233Z,6.17
2019-01-06T01:43:10.331Z,8.10
2019-01-06T01:46:07.076Z,9.53
2019-01-06T01:48:57.552Z,6.47
2019-01-06T01:51:47.846Z,8.33
2019-01-06T01:54:41.582Z,6.77
2019-01-06T01:57:47.542Z,6.53
2019-01-06T02:00:43.062Z,10.50
2019-01-06T02:03:19.678Z,7.03
2019-01-06T02:06:05.667Z,7.73
2019-01-06T02:08:52.135Z,7.80
2019-01-06T02:11:37.919Z,8.10
2019-01-06T02:17:20.427Z,6.10
2019-01-06T02:20:08.709Z,5.40
2019-01-06T02:23:05.315Z,5.73
2019-01-06T02:25:47.673Z,6.37
2019-01-06T02:28:37.730Z,7.13
2019-01-06T02:31:26.182Z,7.93
2019-01-06T02:34:17.984Z,7.87
2019-01-06T02:37:13.663Z,6.20
2019-01-06T02:40:00.701Z,5.83
2019-01-06T02:42:46.719Z,7.37
2019-01-06T02:45:39.668Z,5.60
2019-01-06T02:48:26.919Z,7.00
2019-01-06T02:51:12.675Z,6.20
2019-01-06T02:54:06.189Z,7.43
2019-01-06T02:56:53.362Z,7.67
2019-01-06T02:59:38.944Z,6.13
2019-01-06T03:02:31.942Z,5.60
2019-01-06T03:05:31.087Z,4.40
2019-01-06T03:08:19.975Z,4.40
2019-01-06T03:11:07.092Z,5.20
2019-01-06T03:14:02.522Z,10.83
2019-01-06T03:17:16.378Z,7.27
2019-01-06T03:20:03.853Z,7.93
2019-01-06T03:23:07.804Z,6.60
2019-01-06T03:26:16.478Z,7.20
2019-01-06T03:29:10.554Z,5.80
2019-01-06T03:31:58.931Z,8.90
2019-01-06T03:34:50.382Z,6.57
2019-01-06T03:37:38.544Z,7.60
2019-01-06T03:40:34.497Z,8.00
2019-01-06T03:43:20.634Z,7.90
2019-01-06T03:46:07.080Z,5.97
2019-01-06T03:49:07.091Z,7.60
2019-01-06T03:51:53.149Z,6.37
2019-01-06T03:54:52.872Z,7.50
2019-01-06T03:57:40.521Z,7.50
2019-01-06T04:00:26.774Z,6.00
2019-01-06T04:03:26.619Z,5.20
2019-01-06T04:06:17.135Z,7.47
2019-01-06T04:09:06.614Z,6.80
2019-01-06T04:11:59.996Z,7.07
2019-01-06T04:14:53.750Z,5.87
2019-01-06T04:17:40.356Z,5.37
2019-01-06T04:20:28.113Z,7.83
2019-01-06T04:23:27.598Z,6.93
2019-01-06T04:26:13.671Z,5.27
2019-01-06T04:29:04.058Z,5.50
2019-01-06T04:31:46.853Z,5.47
2019-01-06T04:34:29.472Z,8.07
2019-01-06T04:37:15.754Z,6.03
2019-01-06T04:39:54.314Z,6.17
2019-01-06T04:42:42.395Z,4.27
2019-01-06T04:45:29.000Z,7.80
2019-01-06T04:48:11.038Z,4.63
2019-01-06T04:50:57.710Z,4.33
2019-01-06T04:53:48.011Z,4.03
2019-01-06T04:56:34.102Z,6.40
2019-01-06T04:59:20.508Z,17.70
2019-01-06T05:02:06.806Z,5.40
2019-01-06T05:04:53.111Z,5.47
2019-01-06T05:07:40.718Z,9.10
2019-01-06T05:10:28.253Z,5.73
2019-01-06T05:13:15.720Z,4.77
2019-01-06T05:16:08.961Z,5.03
2019-01-06T05:18:55.176Z,4.27
2019-01-06T05:21:57.918Z,5.37
2019-01-06T05:24:44.147Z,4.93
2019-01-06T05:27:30.441Z,4.83
2019-01-06T05:30:26.795Z,3.80
2019-01-06T05:33:17.378Z,4.10
2019-01-06T05:36:03.677Z,4.73
2019-01-06T05:38:51.339Z,3.73
2019-01-06T05:41:37.610Z,3.70
2019-01-06T05:44:25.219Z,5.73
2019-01-06T05:47:19.430Z,4.87
2019-01-06T05:50:10.057Z,3.60
2019-01-06T05:53:09.705Z,3.60
2019-01-06T05:55:53.700Z,4.40
2019-01-06T05:58:41.322Z,3.77
2019-01-06T06:01:27.110Z,3.67
2019-01-06T06:04:14.547Z,4.20
2019-01-06T06:07:11.461Z,3.73
2019-01-06T06:10:03.310Z,3.30
2019-01-06T06:12:44.980Z,5.13
2019-01-06T06:15:50.348Z,4.40
2019-01-06T06:18:47.034Z,4.43
2019-01-06T06:21:34.620Z,4.00
2019-01-06T06:24:21.024Z,4.00
2019-01-06T06:27:19.018Z,3.90
2019-01-06T06:30:15.315Z,4.23
2019-01-06T06:33:01.906Z,4.13
2019-01-06T06:35:55.505Z,5.13
2019-01-06T06:38:43.251Z,5.20
2019-01-06T06:41:48.917Z,4.73
2019-01-06T06:44:34.889Z,4.57
2019-01-06T06:47:28.276Z,5.07
2019-01-06T06:50:34.115Z,5.00
2019-01-06T06:53:22.291Z,4.40
2019-01-06T06:56:08.621Z,4.27
2019-01-06T06:59:00.129Z,4.80
2019-01-06T07:02:23.208Z,4.83
2019-01-06T07:05:18.084Z,7.63
2019-01-06T07:08:23.495Z,4.00
2019-01-06T07:11:25.999Z,4.87
2019-01-06T07:14:13.644Z,5.13
2019-01-06T07:17:37.939Z,5.30
2019-01-06T07:20:28.401Z,3.80
2019-01-06T07:23:26.513Z,4.60
2019-01-06T07:26:17.007Z,4.30
2019-01-06T07:29:14.140Z,4.10
2019-01-06T07:32:04.533Z,4.50
2019-01-06T07:34:57.699Z,3.90
2019-01-06T07:37:43.697Z,4.03
2019-01-06T07:40:30.022Z,4.87
2019-01-06T07:43:16.382Z,3.77
2019-01-06T07:46:12.262Z,3.30
2019-01-06T07:48:58.945Z,4.57
2019-01-06T07:51:49.333Z,4.57
2019-01-06T07:54:29.489Z,3.60
2019-01-06T07:57:16.277Z,8.60
2019-01-06T08:00:15.265Z,7.03
2019-01-06T08:03:25.029Z,3.67
2019-01-06T08:06:11.334Z,4.90
2019-01-06T08:09:14.411Z,2.90
2019-01-06T08:12:05.047Z,3.70
2019-01-06T08:14:58.484Z,5.30
2019-01-06T08:17:45.101Z,5.37
2019-01-06T08:20:32.770Z,7.37
2019-01-06T08:23:29.125Z,4.83
2019-01-06T08:26:15.301Z,3.77
2019-01-06T08:29:02.784Z,5.93
2019-01-06T08:31:47.161Z,4.07
2019-01-06T08:34:36.733Z,4.43
2019-01-06T08:37:23.249Z,5.10
2019-01-06T08:40:09.418Z,4.87
2019-01-06T08:43:05.583Z,3.80
2019-01-06T08:45:59.051Z,3.07
2019-01-06T08:48:46.739Z,4.07
2019-01-06T08:51:28.635Z,5.63
2019-01-06T08:54:16.376Z,5.03
2019-01-06T08:57:16.293Z,3.17
2019-01-06T09:00:12.501Z,5.27
2019-01-06T09:03:12.343Z,5.30
2019-01-06T09:05:59.794Z,4.70
2019-01-06T09:08:56.319Z,5.27
2019-01-06T09:11:43.016Z,4.60
2019-01-06T09:14:34.546Z,4.70
2019-01-06T09:17:25.157Z,4.37
2019-01-06T09:20:22.494Z,3.30
2019-01-06T09:23:12.447Z,3.00
2019-01-06T09:26:05.864Z,2.90
2019-01-06T09:28:51.845Z,3.87
2019-01-06T09:31:39.278Z,4.23
2019-01-06T09:34:26.805Z,4.43
2019-01-06T09:37:14.329Z,4.10
2019-01-06T09:40:00.460Z,3.73
2019-01-06T09:42:47.770Z,4.17
2019-01-06T09:45:38.252Z,4.00
2019-01-06T09:48:37.897Z,4.70
2019-01-06T09:51:28.025Z,11.17
2019-01-06T09:54:14.713Z,5.87
2019-01-06T09:57:17.292Z,6.27
2019-01-06T10:00:10.942Z,4.00
2019-01-06T10:02:57.042Z,4.60
2019-01-06T10:05:44.945Z,4.13
2019-01-06T10:08:32.591Z,4.53
2019-01-06T10:11:18.867Z,6.33
2019-01-06T10:14:05.098Z,4.90
2019-01-06T10:17:04.335Z,5.57
2019-01-06T10:19:54.790Z,5.40
2019-01-06T10:22:41.363Z,5.23
2019-01-06T10:25:34.239Z,3.40
2019-01-06T10:28:28.326Z,3.17
2019-01-06T10:31:27.885Z,3.20
2019-01-06T10:35:02.995Z,3.20
2019-01-06T10:37:53.678Z,2.93
2019-01-06T10:40:54.725Z,4.00
2019-01-06T10:43:43.690Z,3.80
2019-01-06T10:46:47.312Z,3.07
2019-01-06T10:49:55.110Z,2.80
2019-01-06T10:52:44.441Z,5.70
2019-01-06T10:55:25.561Z,3.10
2019-01-06T10:58:13.492Z,2.90
2019-01-06T11:01:04.239Z,2.53
2019-01-06T11:04:01.292Z,2.30
2019-01-06T11:06:48.831Z,4.07
2019-01-06T11:09:40.719Z,4.33
2019-01-06T11:12:45.983Z,4.07
2019-01-06T11:15:32.368Z,3.50
2019-01-06T11:18:35.466Z,2.63
2019-01-06T11:21:32.188Z,3.00
2019-01-06T11:24:22.781Z,3.07
2019-01-06T11:27:08.948Z,3.43
2019-01-06T11:30:11.677Z,2.90
2019-01-06T11:33:11.309Z,3.50
2019-01-06T11:35:57.506Z,5.93
2019-01-06T11:38:45.649Z,2.97
2019-01-06T11:41:39.242Z,3.30
2019-01-06T11:44:25.529Z,4.63
2019-01-06T11:47:18.691Z,4.47
2019-01-06T11:50:09.785Z,4.83
2019-01-06T11:53:03.309Z,4.60
2019-01-06T11:55:56.541Z,4.33
2019-01-06T11:58:47.134Z,3.90
2019-01-06T12:01:41.096Z,4.53
2019-01-06T12:04:26.870Z,4.57
2019-01-06T12:07:13.403Z,3.73
2019-01-06T12:10:15.988Z,5.37
2019-01-06T12:13:03.625Z,4.77
2019-01-06T12:15:53.911Z,4.73
2019-01-06T12:18:40.607Z,4.53
2019-01-06T12:21:31.020Z,4.23
2019-01-06T12:24:21.933Z,4.10
2019-01-06T12:27:28.928Z,4.63
2019-01-06T12:30:17.210Z,6.10
2019-01-06T12:33:10.927Z,8.07
2019-01-06T12:35:58.572Z,3.90
2019-01-06T12:39:07.279Z,4.17
2019-01-06T12:42:40.746Z,5.87
2019-01-06T12:46:00.860Z,4.20
2019-01-06T12:49:32.748Z,13.37
2019-01-06T12:52:30.573Z,7.17
2019-01-06T12:55:21.193Z,4.03
2019-01-06T12:58:07.399Z,5.17
2019-01-06T13:01:07.092Z,4.73
2019-01-06T13:04:00.753Z,4.50
2019-01-06T13:07:06.360Z,4.80
2019-01-06T13:10:00.255Z,6.27
2019-01-06T13:13:03.834Z,6.50
2019-01-06T13:16:02.124Z,6.70
2019-01-06T13:19:04.502Z,6.87
2019-01-06T13:22:04.978Z,5.00
2019-01-06T13:24:52.602Z,6.90
2019-01-06T13:27:53.261Z,6.07
2019-01-06T13:30:56.549Z,6.80
2019-01-06T13:33:50.208Z,4.90
2019-01-06T13:36:36.507Z,5.73
2019-01-06T13:39:23.601Z,5.43
2019-01-06T13:42:23.333Z,5.47
2019-01-06T13:45:13.637Z,4.23
2019-01-06T13:47:59.941Z,5.00
2019-01-06T13:50:46.747Z,4.40
2019-01-06T13:53:43.300Z,4.63
2019-01-06T13:56:40.846Z,4.70
2019-01-06T13:59:44.667Z,6.70
2019-01-06T14:02:31.264Z,4.97
2019-01-06T14:05:17.371Z,6.03
2019-01-06T14:08:07.659Z,4.30
2019-01-06T14:10:53.977Z,5.20
2019-01-06T14:13:45.067Z,5.07
2019-01-06T14:16:45.829Z,7.30
2019-01-06T14:19:35.976Z,5.37
2019-01-06T14:22:23.621Z,5.33
2019-01-06T14:25:10.023Z,7.27
2019-01-06T14:27:56.525Z,8.73
2019-01-06T14:30:46.751Z,4.17
2019-01-06T14:33:33.322Z,5.17
2019-01-06T14:36:32.734Z,5.30
2019-01-06T14:39:19.165Z,5.43
2019-01-06T14:42:05.445Z,8.00
2019-01-06T14:45:08.010Z,5.20
2019-01-06T14:48:31.600Z,8.50
2019-01-06T14:51:18.131Z,6.83
2019-01-06T14:54:03.099Z,5.00
2019-01-06T14:57:02.783Z,5.93
2019-01-06T15:00:02.605Z,6.50
2019-01-06T15:02:50.455Z,4.17
2019-01-06T15:05:39.261Z,7.33
2019-01-06T15:08:26.006Z,5.40
2019-01-06T15:11:22.663Z,5.20
2019-01-06T15:14:08.387Z,5.90
2019-01-06T15:17:08.067Z,4.17
2019-01-06T15:19:53.863Z,4.97
2019-01-06T15:22:41.365Z,4.47
2019-01-06T15:25:29.947Z,5.87
2019-01-06T15:28:16.026Z,6.50
2019-01-06T15:34:11.072Z,4.30
2019-01-06T15:36:58.923Z,5.20
2019-01-06T15:39:55.409Z,4.87
2019-01-06T15:42:42.353Z,6.10
2019-01-06T15:45:29.659Z,7.90
2019-01-06T15:48:16.898Z,4.90
2019-01-06T15:51:02.791Z,5.40
2019-01-06T15:53:57.274Z,5.23
2019-01-06T15:56:43.879Z,6.43
2019-01-06T15:59:29.998Z,5.60
2019-01-06T16:02:29.610Z,5.57
2019-01-06T16:05:20.666Z,8.30
2019-01-06T16:08:07.128Z,18.30
2019-01-06T16:10:53.538Z,11.83
2019-01-06T16:13:44.070Z,10.10
2019-01-06T16:16:31.487Z,8.63
2019-01-06T16:19:12.594Z,5.47
2019-01-06T16:21:58.824Z,5.80
2019-01-06T16:24:55.311Z,8.27
2019-01-06T16:27:51.497Z,7.53
2019-01-06T16:30:45.063Z,7.63
2019-01-06T16:33:31.371Z,8.00
2019-01-06T16:36:17.457Z,9.20
2019-01-06T16:39:03.706Z,7.63
2019-01-06T16:41:49.306Z,10.10
2019-01-06T16:44:48.863Z,5.80
2019-01-06T16:47:34.855Z,7.30
2019-01-06T16:50:20.938Z,7.50
2019-01-06T16:53:08.607Z,8.23
2019-01-06T16:56:01.891Z,7.73
2019-01-06T16:58:51.735Z,6.93
2019-01-06T17:01:45.608Z,9.53
2019-01-06T17:04:48.473Z,9.40
2019-01-06T17:07:34.611Z,7.40
2019-01-06T17:10:31.238Z,9.83
2019-01-06T17:13:28.383Z,7.40
2019-01-06T17:16:06.144Z,6.30
2019-01-06T17:18:52.584Z,6.23
2019-01-06T17:21:38.701Z,6.63
2019-01-06T17:24:32.150Z,6.47
2019-01-06T17:27:38.411Z,6.33
2019-01-06T17:30:24.712Z,7.03
2019-01-06T17:33:10.911Z,5.77
2019-01-06T17:36:01.369Z,9.07
2019-01-06T17:38:39.538Z,8.20
2019-01-06T17:41:25.713Z,8.10
2019-01-06T17:44:24.691Z,14.20
2019-01-06T17:47:07.571Z,6.63
2019-01-06T17:49:55.526Z,7.97
2019-01-06T17:52:41.995Z,10.33
2019-01-06T17:55:28.300Z,12.27
2019-01-06T17:58:13.469Z,8.90
2019-01-06T18:00:59.669Z,8.50
2019-01-06T18:04:02.361Z,8.80
2019-01-06T18:06:48.253Z,8.37
2019-01-06T18:09:47.781Z,11.57
2019-01-06T18:12:47.762Z,23.47
2019-01-06T18:15:38.267Z,15.40
2019-01-06T18:18:35.313Z,8.90
2019-01-06T18:21:36.887Z,8.67
2019-01-06T18:24:19.487Z,9.40
2019-01-06T18:27:15.928Z,9.77
2019-01-06T18:30:14.516Z,10.40
2019-01-06T18:33:02.452Z,11.33
2019-01-06T18:35:47.173Z,9.80
2019-01-06T18:38:38.429Z,8.43
2019-01-06T18:41:26.214Z,14.10
2019-01-06T18:44:13.807Z,18.60
2019-01-06T18:47:00.406Z,19.07
2019-01-06T18:49:46.486Z,11.50
2019-01-06T18:52:26.853Z,13.73
2019-01-06T18:55:17.860Z,9.20
2019-01-06T18:58:15.012Z,13.97
2019-01-06T19:01:00.492Z,13.23
2019-01-06T19:03:48.629Z,15.23
2019-01-06T19:06:36.205Z,14.73
2019-01-06T19:09:26.787Z,20.60
2019-01-06T19:12:20.334Z,14.80
2019-01-06T19:15:07.779Z,12.93
2019-01-06T19:17:58.359Z,11.17
2019-01-06T19:20:45.382Z,12.60
2019-01-06T19:23:39.242Z,11.00
2019-01-06T19:26:45.108Z,11.20
2019-01-06T19:29:31.533Z,14.03
2019-01-06T19:32:17.910Z,11.63
2019-01-06T19:35:00.508Z,13.97
2019-01-06T19:37:56.863Z,10.10
2019-01-06T19:40:43.263Z,14.10
2019-01-06T19:43:42.832Z,14.53
2019-01-06T19:46:30.317Z,15.60
2019-01-06T19:49:17.211Z,13.20
2019-01-06T19:51:59.333Z,14.70
2019-01-06T19:54:46.329Z,18.50
2019-01-06T19:57:32.855Z,11.10
2019-01-06T20:00:33.797Z,15.33
2019-01-06T20:03:19.820Z,14.23
2019-01-06T20:06:09.974Z,14.63
2019-01-06T20:09:09.687Z,12.60
2019-01-06T20:11:53.251Z,14.83
2019-01-06T20:14:39.519Z,15.47
2019-01-06T20:17:30.492Z,12.37
2019-01-06T20:20:16.318Z,12.03
2019-01-06T20:23:04.061Z,11.93
2019-01-06T20:25:50.458Z,16.27
2019-01-06T20:28:52.623Z,14.73
2019-01-06T20:31:48.959Z,12.30
2019-01-06T20:34:39.455Z,17.60
2019-01-06T20:37:24.173Z,12.03
2019-01-06T20:40:12.878Z,12.57
2019-01-06T20:43:00.808Z,13.77
2019-01-06T20:45:48.339Z,15.00
2019-01-06T20:48:46.365Z,13.57
2019-01-06T20:51:52.114Z,11.87
2019-01-06T20:54:58.342Z,12.77
2019-01-06T20:58:02.630Z,12.17
2019-01-06T21:01:19.633Z,15.73
2019-01-06T21:04:02.339Z,12.73
2019-01-06T21:06:40.246Z,9.10
2019-01-06T21:09:33.916Z,13.43
2019-01-06T21:12:37.975Z,12.37
2019-01-06T21:15:39.063Z,10.90
2019-01-06T21:18:33.265Z,10.40
2019-01-06T21:21:20.923Z,14.20
2019-01-06T21:24:07.265Z,11.90
2019-01-06T21:26:55.271Z,13.40
2019-01-06T21:30:01.125Z,10.30
2019-01-06T21:32:58.285Z,11.47
2019-01-06T21:36:01.293Z,14.20
2019-01-06T21:38:55.095Z,10.87
2019-01-06T21:41:43.283Z,11.00
2019-01-06T21:44:31.203Z,10.00
2019-01-06T21:47:23.197Z,9.40
2019-01-06T21:50:03.288Z,11.87
2019-01-06T21:52:53.279Z,10.50
2019-01-06T21:55:49.204Z,11.80
2019-01-06T21:58:39.482Z,9.67
2019-01-06T22:01:25.896Z,9.50
2019-01-06T22:04:11.839Z,10.80
2019-01-06T22:06:59.437Z,11.17
2019-01-06T22:09:53.110Z,13.03
2019-01-06T22:12:58.722Z,9.40
2019-01-06T22:15:49.583Z,10.73
2019-01-06T22:18:35.928Z,11.30
2019-01-06T22:21:41.977Z,11.90
2019-01-06T22:24:38.360Z,8.17
2019-01-06T22:27:41.181Z,10.47
2019-01-06T22:30:26.379Z,10.30
2019-01-06T22:33:11.232Z,13.20
2019-01-06T22:35:54.651Z,11.90
2019-01-06T22:38:45.051Z,10.27
2019-01-06T22:41:32.745Z,11.50
2019-01-06T22:44:22.355Z,12.83
2019-01-06T22:47:08.171Z,10.80
2019-01-06T22:50:01.962Z,10.73
2019-01-06T22:52:55.172Z,11.20
2019-01-06T22:55:57.659Z,10.87
2019-01-06T22:59:03.865Z,8.87
2019-01-06T23:02:09.949Z,7.90
2019-01-06T23:04:58.549Z,8.33
2019-01-06T23:07:50.546Z,9.20
2019-01-06T23:10:52.151Z,7.80
2019-01-06T23:13:48.193Z,8.60
2019-01-06T23:16:53.084Z,9.60
2019-01-06T23:19:48.440Z,6.90
2019-01-06T23:22:34.766Z,8.83
2019-01-06T23:25:21.877Z,8.13
2019-01-06T23:28:15.810Z,8.80
2019-01-06T23:31:26.019Z,8.40
2019-01-06T23:34:26.050Z,5.60
2019-01-06T23:37:39.174Z,9.50
2019-01-06T23:40:49.121Z,6.70
2019-01-06T23:43:40.463Z,7.03
2019-01-06T23:46:53.518Z,6.27
2019-01-06T23:49:46.135Z,5.67
2019-01-06T23:52:40.342Z,6.37
2019-01-06T23:55:32.592Z,6.50
2019-01-06T23:58:29.543Z,7.20
